createdAt,value
2023-04-18T00:01:39.075Z,16.87
2023-04-18T00:04:06.100Z,15.97
2023-04-18T00:06:32.946Z,17.90
2023-04-18T00:08:59.691Z,17.40
2023-04-18T00:11:26.540Z,18.27
2023-04-18T00:13:53.532Z,17.20
2023-04-18T00:16:20.892Z,16.90
2023-04-18T00:18:48.241Z,18.87
2023-04-18T00:21:16.744Z,17.50
2023-04-18T00:23:43.637Z,17.70
2023-04-18T00:26:10.416Z,17.37
2023-04-18T00:28:37.102Z,16.23
2023-04-18T00:31:04.001Z,16.10
2023-04-18T00:33:30.725Z,18.23
2023-04-18T00:35:57.469Z,17.63
2023-04-18T00:38:24.236Z,17.27
2023-04-18T00:40:50.968Z,15.73
2023-04-18T00:43:17.692Z,17.00
2023-04-18T00:45:44.572Z,16.73
2023-04-18T00:48:11.620Z,17.50
2023-04-18T00:50:38.542Z,16.87
2023-04-18T00:53:06.007Z,16.80
2023-04-18T00:55:32.957Z,18.03
2023-04-18T00:57:59.807Z,17.23
2023-04-18T01:00:26.770Z,17.97
2023-04-18T01:02:55.822Z,15.80
2023-04-18T01:05:23.383Z,16.80
2023-04-18T01:07:50.491Z,17.10
2023-04-18T01:10:17.272Z,16.83
2023-04-18T01:12:44.063Z,17.40
2023-04-18T01:15:11.803Z,18.70
2023-04-18T01:17:39.680Z,16.03
2023-04-18T01:20:07.241Z,16.40
2023-04-18T01:22:34.273Z,16.57
2023-04-18T01:25:06.115Z,18.77
2023-04-18T01:27:32.795Z,17.40
2023-04-18T01:29:59.577Z,16.83
2023-04-18T01:32:26.340Z,17.80
2023-04-18T01:34:53.125Z,19.73
2023-04-18T01:37:19.904Z,21.47
2023-04-18T01:39:48.005Z,18.10
2023-04-18T01:42:14.713Z,23.53
2023-04-18T01:44:41.477Z,22.33
2023-04-18T01:47:08.259Z,28.17
2023-04-18T01:49:34.950Z,19.60
2023-04-18T01:52:01.678Z,18.73
2023-04-18T01:54:28.471Z,19.93
2023-04-18T01:56:55.136Z,17.23
2023-04-18T01:59:21.906Z,18.40
2023-04-18T02:01:48.693Z,18.80
2023-04-18T02:04:15.607Z,20.20
2023-04-18T02:06:42.631Z,21.67
2023-04-18T02:09:12.661Z,18.73
2023-04-18T02:11:39.407Z,17.10
2023-04-18T02:14:06.621Z,18.87
2023-04-18T02:16:34.833Z,17.60
2023-04-18T02:19:04.326Z,16.57
2023-04-18T02:21:31.029Z,20.10
2023-04-18T02:23:58.083Z,16.90
2023-04-18T02:26:24.846Z,17.60
2023-04-18T02:28:51.633Z,18.80
2023-04-18T02:31:18.342Z,18.67
2023-04-18T02:33:49.921Z,15.97
2023-04-18T02:36:16.664Z,17.83
2023-04-18T02:38:44.845Z,17.93
2023-04-18T02:41:15.260Z,16.47
2023-04-18T02:43:42.326Z,16.40
2023-04-18T02:46:09.125Z,18.03
2023-04-18T02:48:35.864Z,16.00
2023-04-18T02:51:04.136Z,17.10
2023-04-18T02:53:31.162Z,16.27
2023-04-18T02:55:58.722Z,16.10
2023-04-18T02:58:25.588Z,16.23
2023-04-18T03:00:56.596Z,15.57
2023-04-18T03:03:23.313Z,15.63
2023-04-18T03:05:50.120Z,15.53
2023-04-18T03:08:16.845Z,16.70
2023-04-18T03:10:43.604Z,15.73
2023-04-18T03:13:10.382Z,16.13
2023-04-18T03:15:37.732Z,14.43
2023-04-18T03:18:05.343Z,15.07
2023-04-18T03:20:32.040Z,15.43
2023-04-18T03:22:58.702Z,14.87
2023-04-18T03:25:25.659Z,15.23
2023-04-18T03:27:52.333Z,14.63
2023-04-18T03:30:19.051Z,15.03
2023-04-18T03:32:46.640Z,15.50
2023-04-18T03:35:13.421Z,14.67
2023-04-18T03:37:40.182Z,15.13
2023-04-18T03:40:07.379Z,19.53
2023-04-18T03:42:34.122Z,17.43
2023-04-18T03:45:01.016Z,15.80
2023-04-18T03:47:29.915Z,15.33
2023-04-18T03:49:56.933Z,12.90
2023-04-18T03:52:23.968Z,16.30
2023-04-18T03:54:50.876Z,16.60
2023-04-18T03:57:17.906Z,15.17
2023-04-18T03:59:46.117Z,15.93
2023-04-18T04:02:14.140Z,16.20
2023-04-18T04:04:41.081Z,14.77
2023-04-18T04:07:07.913Z,16.20
2023-04-18T04:09:34.619Z,15.83
2023-04-18T04:12:02.391Z,16.30
2023-04-18T04:14:29.115Z,15.17
2023-04-18T04:16:55.858Z,15.17
2023-04-18T04:19:22.590Z,15.50
2023-04-18T04:21:49.361Z,16.50
2023-04-18T04:24:16.529Z,15.33
2023-04-18T04:26:43.491Z,15.33
2023-04-18T04:29:10.769Z,16.40
2023-04-18T04:31:37.535Z,16.17
2023-04-18T04:34:04.955Z,15.33
2023-04-18T04:36:33.312Z,16.40
2023-04-18T04:39:00.202Z,14.77
2023-04-18T04:41:27.785Z,15.73
2023-04-18T04:43:54.571Z,16.90
2023-04-18T04:46:23.286Z,16.40
2023-04-18T04:48:50.177Z,18.23
2023-04-18T04:51:16.908Z,17.63
2023-04-18T04:53:43.585Z,14.97
2023-04-18T04:56:11.072Z,16.97
2023-04-18T04:58:37.901Z,16.13
2023-04-18T05:01:07.574Z,18.10
2023-04-18T05:03:34.927Z,18.63
2023-04-18T05:06:03.422Z,18.70
2023-04-18T05:08:30.241Z,17.27
2023-04-18T05:10:56.989Z,16.63
2023-04-18T05:13:23.801Z,17.03
2023-04-18T05:15:51.959Z,15.37
2023-04-18T05:18:18.833Z,18.37
2023-04-18T05:20:45.612Z,17.23
2023-04-18T05:23:12.295Z,17.43
2023-04-18T05:25:39.053Z,15.90
2023-04-18T05:28:05.838Z,17.77
2023-04-18T05:30:32.549Z,16.83
2023-04-18T05:32:59.318Z,15.90
2023-04-18T05:35:26.334Z,18.63
2023-04-18T05:37:53.151Z,18.03
2023-04-18T05:40:20.010Z,17.33
2023-04-18T05:42:46.780Z,17.40
2023-04-18T05:45:13.534Z,18.80
2023-04-18T05:47:40.336Z,17.97
2023-04-18T05:50:08.018Z,18.50
2023-04-18T05:52:38.535Z,17.73
2023-04-18T05:55:06.331Z,17.97
2023-04-18T05:57:33.210Z,17.23
2023-04-18T05:59:59.941Z,17.20
2023-04-18T06:02:26.826Z,16.67
2023-04-18T06:04:53.849Z,17.10
2023-04-18T06:07:21.525Z,17.60
2023-04-18T06:09:49.688Z,18.77
2023-04-18T06:12:16.661Z,18.27
2023-04-18T06:14:43.421Z,16.17
2023-04-18T06:17:12.503Z,16.40
2023-04-18T06:19:42.292Z,16.40
2023-04-18T06:22:09.104Z,16.27
2023-04-18T06:24:37.273Z,17.90
2023-04-18T06:27:05.041Z,17.30
2023-04-18T06:29:33.292Z,17.27
2023-04-18T06:32:00.342Z,17.10
2023-04-18T06:34:27.142Z,16.33
2023-04-18T06:36:53.963Z,17.23
2023-04-18T06:39:21.264Z,16.83
2023-04-18T06:41:49.184Z,14.90
2023-04-18T06:44:19.024Z,17.80
2023-04-18T06:46:46.430Z,17.40
2023-04-18T06:49:13.114Z,17.90
2023-04-18T06:51:39.853Z,18.03
2023-04-18T06:54:06.666Z,18.27
2023-04-18T06:56:36.245Z,16.70
2023-04-18T06:59:03.290Z,17.30
2023-04-18T07:01:33.260Z,17.40
2023-04-18T07:04:00.801Z,18.70
2023-04-18T07:06:27.675Z,17.17
2023-04-18T07:08:59.956Z,16.47
2023-04-18T07:11:27.074Z,16.17
2023-04-18T07:13:53.861Z,17.53
2023-04-18T07:16:21.222Z,17.87
2023-04-18T07:18:48.017Z,16.60
2023-04-18T07:21:14.851Z,15.60
2023-04-18T07:23:41.577Z,16.50
2023-04-18T07:26:09.550Z,16.00
2023-04-18T07:28:36.511Z,15.30
2023-04-18T07:31:03.802Z,15.47
2023-04-18T07:33:33.994Z,15.70
2023-04-18T07:36:03.763Z,16.93
2023-04-18T07:38:30.701Z,15.73
2023-04-18T07:40:59.421Z,15.27
2023-04-18T07:43:26.872Z,14.50
2023-04-18T07:45:54.231Z,17.87
2023-04-18T07:48:27.455Z,17.17
2023-04-18T07:50:54.179Z,18.07
2023-04-18T07:53:21.101Z,14.63
2023-04-18T07:55:47.883Z,15.70
2023-04-18T07:58:14.681Z,16.17
2023-04-18T08:00:43.764Z,15.20
2023-04-18T08:03:12.336Z,16.27
2023-04-18T08:05:40.254Z,16.23
2023-04-18T08:08:08.265Z,17.17
2023-04-18T08:10:35.672Z,17.10
2023-04-18T08:13:03.291Z,16.33
2023-04-18T08:15:32.340Z,15.87
2023-04-18T08:18:00.390Z,15.20
2023-04-18T08:20:27.380Z,15.90
2023-04-18T08:23:06.064Z,16.30
2023-04-18T08:25:36.426Z,17.10
2023-04-18T08:28:04.188Z,17.47
2023-04-18T08:30:31.262Z,16.23
2023-04-18T08:32:59.553Z,15.50
2023-04-18T08:35:26.584Z,15.90
2023-04-18T08:37:53.319Z,14.77
2023-04-18T08:40:20.578Z,17.33
2023-04-18T08:42:47.800Z,14.40
2023-04-18T08:45:14.736Z,17.10
2023-04-18T08:47:42.292Z,17.47
2023-04-18T08:50:10.546Z,16.17
2023-04-18T08:52:40.024Z,16.60
2023-04-18T08:55:07.543Z,15.17
2023-04-18T08:57:35.963Z,14.13
2023-04-18T09:00:08.332Z,17.77
2023-04-18T09:02:42.743Z,17.10
2023-04-18T09:05:13.378Z,15.37
2023-04-18T09:07:40.702Z,17.27
2023-04-18T09:10:07.945Z,16.57
2023-04-18T09:12:52.191Z,16.53
2023-04-18T09:15:23.602Z,15.67
2023-04-18T09:17:56.343Z,15.13
2023-04-18T09:20:26.271Z,16.60
2023-04-18T09:22:57.704Z,17.73
2023-04-18T09:25:29.459Z,14.70
2023-04-18T09:28:01.049Z,17.73
2023-04-18T09:30:33.915Z,17.57
2023-04-18T09:33:01.741Z,16.63
2023-04-18T09:35:28.695Z,16.07
2023-04-18T09:37:55.798Z,15.77
2023-04-18T09:40:23.998Z,16.70
2023-04-18T09:42:54.258Z,15.93
2023-04-18T09:45:21.914Z,16.53
2023-04-18T09:47:48.850Z,15.53
2023-04-18T09:50:20.414Z,15.87
2023-04-18T09:52:48.073Z,16.10
2023-04-18T09:55:17.327Z,15.77
2023-04-18T09:57:47.461Z,15.80
2023-04-18T10:00:27.291Z,15.40
2023-04-18T10:03:08.182Z,16.27
2023-04-18T10:05:36.637Z,15.93
2023-04-18T10:08:04.269Z,15.53
2023-04-18T10:10:32.299Z,14.80
2023-04-18T10:13:01.391Z,14.47
2023-04-18T10:15:29.558Z,14.20
2023-04-18T10:18:05.101Z,14.17
2023-04-18T10:20:34.887Z,16.20
2023-04-18T10:23:34.776Z,13.50
2023-04-18T10:26:04.458Z,13.73
2023-04-18T10:28:54.768Z,14.27
2023-04-18T10:31:24.006Z,14.83
2023-04-18T10:34:08.899Z,12.50
2023-04-18T10:36:36.041Z,12.50
2023-04-18T10:39:21.416Z,14.17
2023-04-18T10:41:51.730Z,12.17
2023-04-18T10:44:24.931Z,11.10
2023-04-18T10:46:51.681Z,12.97
2023-04-18T10:49:32.617Z,11.70
2023-04-18T10:52:01.266Z,11.90
2023-04-18T10:54:35.887Z,10.87
2023-04-18T10:57:04.211Z,11.87
2023-04-18T10:59:34.325Z,11.67
2023-04-18T11:02:30.048Z,11.50
2023-04-18T11:04:59.024Z,11.37
2023-04-18T11:07:46.114Z,10.63
2023-04-18T11:10:13.435Z,10.37
2023-04-18T11:12:41.118Z,10.67
2023-04-18T11:15:26.305Z,10.30
2023-04-18T11:18:04.512Z,9.90
2023-04-18T11:20:39.740Z,10.87
2023-04-18T11:23:17.165Z,10.67
2023-04-18T11:25:47.113Z,10.20
2023-04-18T11:28:20.607Z,11.73
2023-04-18T11:30:48.063Z,9.87
2023-04-18T11:33:15.093Z,10.70
2023-04-18T11:35:43.380Z,9.40
2023-04-18T11:38:12.682Z,9.23
2023-04-18T11:40:40.210Z,8.57
2023-04-18T11:43:07.843Z,9.67
2023-04-18T11:45:34.595Z,9.10
2023-04-18T11:48:01.624Z,8.83
2023-04-18T11:50:28.396Z,10.00
2023-04-18T11:52:55.827Z,9.60
2023-04-18T11:55:25.042Z,11.27
2023-04-18T11:57:56.441Z,9.90
2023-04-18T12:00:39.455Z,10.30
2023-04-18T12:03:11.830Z,10.70
2023-04-18T12:05:41.083Z,11.80
2023-04-18T12:08:34.664Z,10.70
2023-04-18T12:11:01.471Z,11.10
2023-04-18T12:13:32.840Z,11.67
2023-04-18T12:16:02.419Z,11.37
2023-04-18T12:18:29.918Z,10.03
2023-04-18T12:20:58.654Z,9.40
2023-04-18T12:23:29.928Z,8.77
2023-04-18T12:26:13.662Z,8.47
2023-04-18T12:28:44.723Z,7.50
2023-04-18T12:31:11.512Z,7.97
2023-04-18T12:33:38.325Z,6.93
2023-04-18T12:36:06.069Z,7.93
2023-04-18T12:38:32.891Z,6.80
2023-04-18T12:40:59.723Z,6.33
2023-04-18T12:43:26.741Z,7.40
2023-04-18T12:45:53.612Z,7.67
2023-04-18T12:48:20.410Z,6.90
2023-04-18T12:50:47.119Z,7.00
2023-04-18T12:53:13.822Z,7.40
2023-04-18T12:55:40.766Z,7.50
2023-04-18T12:58:07.652Z,6.70
2023-04-18T13:00:34.604Z,6.57
2023-04-18T13:03:01.590Z,8.10
2023-04-18T13:05:33.078Z,7.67
2023-04-18T13:10:31.204Z,8.17
2023-04-18T13:12:57.994Z,6.73
2023-04-18T13:15:24.805Z,5.63
2023-04-18T13:17:51.569Z,6.90
2023-04-18T13:20:18.775Z,6.37
2023-04-18T13:22:45.701Z,7.30
2023-04-18T13:25:12.608Z,6.90
2023-04-18T13:27:41.893Z,6.40
2023-04-18T13:30:11.814Z,6.10
2023-04-18T13:32:43.892Z,6.33
2023-04-18T13:35:11.615Z,5.90
2023-04-18T13:37:39.126Z,7.43
2023-04-18T13:40:07.150Z,5.60
2023-04-18T13:42:35.607Z,5.90
2023-04-18T13:45:03.130Z,5.33
2023-04-18T13:47:30.122Z,5.80
2023-04-18T13:49:57.836Z,6.07
2023-04-18T13:52:25.676Z,5.63
2023-04-18T13:54:52.376Z,6.07
2023-04-18T13:57:19.226Z,5.70
2023-04-18T13:59:46.037Z,6.27
2023-04-18T14:02:12.863Z,5.57
2023-04-18T14:04:39.849Z,6.80
2023-04-18T14:07:07.996Z,6.43
2023-04-18T14:09:35.038Z,6.10
2023-04-18T14:12:02.111Z,6.30
2023-04-18T14:14:29.211Z,6.97
2023-04-18T14:16:56.066Z,6.47
2023-04-18T14:19:22.854Z,5.80
2023-04-18T14:21:49.690Z,5.97
2023-04-18T14:24:16.569Z,6.70
2023-04-18T14:26:43.981Z,6.00
2023-04-18T14:29:11.130Z,7.57
2023-04-18T14:31:38.176Z,5.90
2023-04-18T14:34:05.614Z,6.60
2023-04-18T14:36:32.704Z,6.00
2023-04-18T14:38:59.580Z,5.17
2023-04-18T14:41:26.473Z,6.33
2023-04-18T14:43:53.350Z,6.17
2023-04-18T14:46:21.203Z,6.30
2023-04-18T14:48:48.010Z,5.90
2023-04-18T14:51:16.498Z,5.20
2023-04-18T14:53:44.292Z,5.50
2023-04-18T14:56:11.170Z,5.67
2023-04-18T14:58:37.936Z,5.77
2023-04-18T15:01:04.955Z,5.03
2023-04-18T15:03:32.342Z,5.70
2023-04-18T15:05:59.326Z,6.37
2023-04-18T15:08:26.282Z,5.80
2023-04-18T15:10:53.103Z,5.93
2023-04-18T15:13:20.144Z,5.43
2023-04-18T15:15:53.948Z,5.77
2023-04-18T15:18:21.185Z,5.13
2023-04-18T15:20:47.950Z,5.60
2023-04-18T15:23:15.350Z,6.07
2023-04-18T15:25:43.804Z,6.20
2023-04-18T15:28:10.520Z,6.43
2023-04-18T15:30:38.467Z,7.37
2023-04-18T15:33:05.399Z,7.17
2023-04-18T15:35:32.144Z,6.57
2023-04-18T15:37:59.014Z,7.50
2023-04-18T15:40:26.153Z,6.70
2023-04-18T15:42:54.291Z,7.27
2023-04-18T15:45:21.801Z,7.50
2023-04-18T15:47:48.619Z,7.33
2023-04-18T15:50:16.364Z,7.30
2023-04-18T15:52:43.974Z,7.30
2023-04-18T15:55:12.898Z,7.70
2023-04-18T15:57:40.684Z,7.23
2023-04-18T16:00:12.000Z,6.80
2023-04-18T16:02:40.729Z,6.53
2023-04-18T16:05:08.464Z,7.33
2023-04-18T16:07:35.231Z,6.90
2023-04-18T16:10:05.052Z,8.67
2023-04-18T16:12:31.850Z,7.70
2023-04-18T16:14:58.556Z,8.10
2023-04-18T16:17:25.332Z,9.10
2023-04-18T16:19:52.082Z,7.30
2023-04-18T16:22:18.854Z,7.37
2023-04-18T16:24:45.624Z,7.07
2023-04-18T16:27:12.489Z,7.20
2023-04-18T16:29:39.221Z,7.33
2023-04-18T16:32:09.039Z,8.17
2023-04-18T16:34:35.913Z,7.47
2023-04-18T16:37:02.764Z,7.40
2023-04-18T16:39:30.097Z,7.03
2023-04-18T16:41:57.575Z,10.10
2023-04-18T16:44:24.313Z,8.80
2023-04-18T16:46:51.093Z,7.47
2023-04-18T16:49:18.243Z,7.10
2023-04-18T16:51:44.974Z,6.50
2023-04-18T16:54:11.809Z,8.07
2023-04-18T16:56:38.902Z,7.03
2023-04-18T16:59:05.662Z,7.97
2023-04-18T17:01:33.869Z,8.23
2023-04-18T17:04:00.728Z,7.37
2023-04-18T17:06:27.826Z,7.50
2023-04-18T17:08:54.688Z,7.23
2023-04-18T17:11:21.468Z,6.97
2023-04-18T17:13:50.157Z,8.37
2023-04-18T17:16:17.822Z,7.20
2023-04-18T17:18:44.706Z,8.13
2023-04-18T17:21:12.544Z,8.03
2023-04-18T17:23:41.560Z,7.20
2023-04-18T17:26:09.533Z,7.53
2023-04-18T17:28:36.459Z,7.20
2023-04-18T17:31:03.711Z,7.47
2023-04-18T17:33:31.278Z,7.60
2023-04-18T17:35:58.513Z,7.70
2023-04-18T17:38:25.447Z,8.17
2023-04-18T17:41:02.796Z,7.80
2023-04-18T17:43:29.600Z,8.00
2023-04-18T17:45:59.880Z,8.50
2023-04-18T17:48:26.712Z,7.70
2023-04-18T17:50:53.398Z,8.73
2023-04-18T17:53:20.164Z,7.70
2023-04-18T17:55:48.874Z,7.50
2023-04-18T17:58:16.881Z,8.17
2023-04-18T18:00:43.841Z,8.03
2023-04-18T18:03:13.990Z,8.30
2023-04-18T18:05:42.107Z,8.27
2023-04-18T18:08:10.031Z,9.30
2023-04-18T18:10:36.853Z,17.60
2023-04-18T18:13:04.014Z,11.77
2023-04-18T18:15:32.748Z,11.93
2023-04-18T18:18:00.322Z,13.13
2023-04-18T18:20:27.432Z,10.17
2023-04-18T18:22:54.983Z,10.23
2023-04-18T18:25:21.837Z,8.93
2023-04-18T18:27:49.344Z,9.60
2023-04-18T18:30:17.270Z,9.73
2023-04-18T18:32:44.156Z,9.13
2023-04-18T18:35:11.056Z,9.67
2023-04-18T18:37:37.890Z,9.60
2023-04-18T18:40:05.118Z,10.20
2023-04-18T18:42:31.886Z,10.33
2023-04-18T18:44:58.809Z,9.67
2023-04-18T18:47:25.691Z,10.10
2023-04-18T18:49:52.630Z,9.90
2023-04-18T18:52:19.637Z,13.30
2023-04-18T18:54:46.499Z,11.37
2023-04-18T18:57:13.440Z,16.60
2023-04-18T18:59:41.722Z,13.03
2023-04-18T19:02:08.979Z,11.67
2023-04-18T19:04:36.334Z,10.30
2023-04-18T19:07:04.964Z,10.60
2023-04-18T19:09:32.256Z,9.60
2023-04-18T19:11:59.663Z,9.83
2023-04-18T19:14:27.103Z,10.53
2023-04-18T19:16:56.074Z,10.90
2023-04-18T19:19:23.464Z,9.40
2023-04-18T19:21:50.859Z,10.43
2023-04-18T19:24:19.308Z,11.53
2023-04-18T19:26:46.842Z,10.17
2023-04-18T19:29:15.182Z,10.27
2023-04-18T19:31:44.192Z,10.23
2023-04-18T19:34:12.264Z,10.40
2023-04-18T19:36:40.047Z,11.77
2023-04-18T19:39:08.793Z,19.07
2023-04-18T19:41:36.441Z,15.27
2023-04-18T19:44:04.498Z,18.07
2023-04-18T19:46:32.193Z,12.80
2023-04-18T19:48:59.812Z,13.80
2023-04-18T19:51:28.826Z,12.07
2023-04-18T19:54:08.176Z,11.83
2023-04-18T19:56:35.760Z,11.67
2023-04-18T19:59:06.325Z,12.50
2023-04-18T20:01:44.793Z,12.40
2023-04-18T20:04:18.616Z,14.30
2023-04-18T20:06:50.717Z,12.10
2023-04-18T20:09:18.361Z,16.83
2023-04-18T20:11:47.121Z,13.67
2023-04-18T20:14:14.811Z,15.30
2023-04-18T20:16:43.501Z,13.67
2023-04-18T20:19:12.865Z,16.07
2023-04-18T20:21:40.436Z,18.90
2023-04-18T20:24:11.004Z,22.00
2023-04-18T20:26:38.228Z,18.93
2023-04-18T20:29:05.574Z,14.07
2023-04-18T20:31:32.755Z,16.37
2023-04-18T20:34:11.245Z,15.90
2023-04-18T20:36:41.769Z,23.87
2023-04-18T20:39:09.445Z,20.40
2023-04-18T20:41:37.149Z,14.13
2023-04-18T20:44:06.640Z,14.90
2023-04-18T20:46:33.549Z,14.03
2023-04-18T20:49:00.354Z,11.67
2023-04-18T20:51:27.766Z,10.70
2023-04-18T20:53:55.652Z,10.80
2023-04-18T20:56:22.345Z,12.03
2023-04-18T20:58:49.070Z,11.73
2023-04-18T21:01:15.838Z,10.83
2023-04-18T21:03:42.767Z,11.60
2023-04-18T21:06:09.703Z,11.67
2023-04-18T21:08:37.894Z,10.60
2023-04-18T21:11:05.275Z,11.53
2023-04-18T21:13:33.219Z,11.77
2023-04-18T21:16:00.662Z,12.00
2023-04-18T21:18:27.348Z,10.20
2023-04-18T21:20:54.279Z,11.10
2023-04-18T21:23:23.203Z,10.87
2023-04-18T21:25:50.412Z,11.20
2023-04-18T21:28:20.064Z,10.80
2023-04-18T21:30:49.523Z,10.77
2023-04-18T21:33:16.906Z,10.87
2023-04-18T21:35:43.646Z,10.57
2023-04-18T21:38:10.489Z,10.33
2023-04-18T21:40:37.657Z,11.40
2023-04-18T21:43:04.426Z,10.73
2023-04-18T21:45:31.100Z,11.80
2023-04-18T21:47:58.019Z,10.97
2023-04-18T21:50:24.819Z,11.20
2023-04-18T21:52:51.587Z,10.80
2023-04-18T21:55:18.486Z,11.70
2023-04-18T21:57:45.208Z,12.60
2023-04-18T22:00:12.844Z,11.90
2023-04-18T22:02:39.609Z,11.30
2023-04-18T22:05:08.868Z,10.80
2023-04-18T22:07:43.274Z,11.87
2023-04-18T22:10:17.779Z,13.63
2023-04-18T22:12:44.640Z,11.93
2023-04-18T22:15:12.354Z,11.73
2023-04-18T22:17:41.700Z,12.93
2023-04-18T22:20:09.050Z,13.43
2023-04-18T22:22:35.783Z,12.57
2023-04-18T22:25:02.538Z,12.40
2023-04-18T22:27:29.284Z,11.30
2023-04-18T22:29:56.023Z,12.57
2023-04-18T22:32:22.829Z,12.40
2023-04-18T22:34:49.601Z,12.03
2023-04-18T22:37:16.512Z,12.63
2023-04-18T22:39:43.286Z,12.67
2023-04-18T22:42:10.038Z,11.93
2023-04-18T22:44:36.815Z,12.53
2023-04-18T22:47:03.642Z,12.70
2023-04-18T22:49:30.334Z,14.03
2023-04-18T22:51:57.245Z,12.77
2023-04-18T22:54:24.235Z,12.87
2023-04-18T22:56:51.356Z,13.07
2023-04-18T22:59:18.197Z,13.07
2023-04-18T23:01:45.053Z,14.47
2023-04-18T23:04:11.975Z,13.47
2023-04-18T23:06:38.969Z,13.30
2023-04-18T23:09:07.683Z,13.20
2023-04-18T23:11:34.489Z,13.57
2023-04-18T23:14:01.304Z,11.60
2023-04-18T23:16:28.394Z,14.03
2023-04-18T23:18:55.307Z,12.60
2023-04-18T23:21:22.004Z,12.13
2023-04-18T23:23:48.735Z,13.00
2023-04-18T23:26:16.037Z,13.90
2023-04-18T23:28:42.847Z,12.70
2023-04-18T23:31:10.041Z,13.13
2023-04-18T23:33:36.827Z,13.53
2023-04-18T23:36:03.804Z,13.07
2023-04-18T23:38:30.809Z,13.80
2023-04-18T23:40:57.553Z,13.37
2023-04-18T23:43:24.366Z,14.97
2023-04-18T23:45:51.118Z,14.07
2023-04-18T23:48:17.840Z,14.37
2023-04-18T23:50:48.917Z,14.27
2023-04-18T23:53:22.774Z,13.27
2023-04-18T23:55:51.073Z,12.83
2023-04-18T23:58:18.004Z,13.77
